Aviation Digital Data Service (ADDS)

Output produced by METARs form (0213 UTC 29 May 2022)
found at http://www.aviationweather.gov/metar/data/
 
Forecast for: AMD
Text: TAF AMD RJAA 290052Z 2900/3006 22008KT 9999 FEW030
Forecast period: 0000 to 0900 UTC 29 May 2022
Forecast type: FROM: standard forecast or significant change
Winds: from the SW (220 degrees) at 9 MPH (8 knots; 4.1 m/s)
Visibility: 6 or more miles (10+ km)
Ceiling: at least 12,000 feet AGL
Clouds: few clouds at 3000 feet AGL
Weather: no significant weather forecast for this period
Text: BECMG 2909/2911 26005KT
Forecast period: 0900 UTC 29 May 2022 to 0000 UTC 30 May 2022
Forecast type: BECOMING: Conditions expected to become as follows by 1100 UTC 29 May 2022
Winds: from the W (260 degrees) at 6 MPH (5 knots; 2.6 m/s)
Visibility: 6 or more miles (10+ km)
Ceiling: at least 12,000 feet AGL
Clouds: few clouds at 3000 feet AGL
Weather: no significant weather forecast for this period
Text: BECMG 3000/3003 08012KT
Forecast period: 0000 to 0600 UTC 30 May 2022
Forecast type: BECOMING: Conditions expected to become as follows by 0300 UTC 30 May 2022
Winds: from the E (80 degrees) at 14 MPH (12 knots; 6.2 m/s)
Visibility: 6 or more miles (10+ km)
Ceiling: at least 12,000 feet AGL
Clouds: few clouds at 3000 feet AGL
Weather: no significant weather forecast for this period